Terminal Aerodrome Forecast
Issued by NWS

Home | Current Version | Previous Version | Text Only | Print | Product List | Glossary On
Versions: 1 2 3 4 5 6 7 8 9 10 11 12 13 14 15 16 17 18 19 20 21 22 23 24 25 26 27 28 29 30 31 32 33
000
FTUS41 KGYX 260207 AAA
TAFMHT
TAF AMD
KMHT 260207Z 2602/2624 18008KT P6SM VCSH SCT080 BKN120
      TEMPO 2602/2606 -SHRA SCT050 BKN080 OVC120
     FM260600 19009KT P6SM BKN080 OVC120
     FM261200 22007KT P6SM SCT080 BKN120
     FM261600 24011G18KT P6SM SCT100 BKN150=

USA.gov is the U.S. government's official web portal to all federal, state and local government web resources and services.